createdAt,value
2017-11-13T00:00:33.688Z,4.79
2017-11-13T00:03:01.313Z,4.79
2017-11-13T00:05:28.971Z,4.80
2017-11-13T00:07:56.647Z,4.78
2017-11-13T00:10:24.315Z,4.76
2017-11-13T00:12:51.932Z,4.72
2017-11-13T00:15:19.592Z,4.65
2017-11-13T00:17:47.284Z,4.57
2017-11-13T00:20:14.919Z,4.58
2017-11-13T00:22:42.615Z,4.59
2017-11-13T00:25:10.255Z,4.61
2017-11-13T00:27:37.908Z,4.58
2017-11-13T00:30:05.556Z,4.53
2017-11-13T00:32:33.180Z,4.53
2017-11-13T00:35:00.840Z,4.54
2017-11-13T00:37:28.536Z,4.53
2017-11-13T00:39:56.128Z,4.54
2017-11-13T00:42:23.742Z,4.53
2017-11-13T00:44:51.323Z,4.49
2017-11-13T00:47:19.025Z,4.50
2017-11-13T00:49:46.684Z,4.50
2017-11-13T00:52:14.393Z,4.53
2017-11-13T00:54:42.016Z,4.54
2017-11-13T00:57:09.691Z,4.55
2017-11-13T00:59:37.347Z,4.54
2017-11-13T01:02:05.045Z,4.50
2017-11-13T01:04:32.708Z,4.47
2017-11-13T01:07:00.389Z,4.46
2017-11-13T01:09:27.983Z,4.45
2017-11-13T01:11:55.660Z,4.46
2017-11-13T01:14:23.315Z,4.46
2017-11-13T01:16:50.995Z,4.45
2017-11-13T01:19:18.661Z,4.44
2017-11-13T01:21:46.317Z,4.45
2017-11-13T01:24:14.013Z,4.46
2017-11-13T01:26:41.665Z,4.45
2017-11-13T01:29:09.355Z,4.45
2017-11-13T01:31:36.997Z,4.45
2017-11-13T01:34:04.691Z,4.46
2017-11-13T01:36:32.296Z,4.48
2017-11-13T01:38:59.986Z,4.46
2017-11-13T01:41:27.654Z,4.48
2017-11-13T01:43:55.376Z,4.47
2017-11-13T01:46:23.029Z,4.49
2017-11-13T01:48:50.739Z,4.49
2017-11-13T01:51:18.396Z,4.50
2017-11-13T01:53:46.091Z,4.51
2017-11-13T01:56:13.802Z,4.49
2017-11-13T01:58:41.491Z,4.50
2017-11-13T02:01:09.164Z,4.49
2017-11-13T02:03:36.884Z,4.47
2017-11-13T02:06:04.640Z,4.46
2017-11-13T02:08:32.360Z,4.47
2017-11-13T02:11:00.036Z,4.46
2017-11-13T02:13:27.719Z,4.46
2017-11-13T02:15:55.393Z,4.46
2017-11-13T02:18:23.104Z,4.47
2017-11-13T02:20:50.757Z,4.46
2017-11-13T02:23:18.464Z,4.45
2017-11-13T02:25:46.155Z,4.44
2017-11-13T02:28:13.868Z,4.44
2017-11-13T02:30:41.527Z,4.43
2017-11-13T02:33:09.162Z,4.44
2017-11-13T02:35:36.875Z,4.43
2017-11-13T02:38:04.564Z,4.43
2017-11-13T02:40:32.162Z,4.44
2017-11-13T02:42:59.893Z,4.43
2017-11-13T02:45:27.507Z,4.44
2017-11-13T02:47:55.199Z,4.45
2017-11-13T02:50:22.876Z,4.47
2017-11-13T02:52:50.580Z,4.49
2017-11-13T02:55:18.291Z,4.49
2017-11-13T02:57:46.024Z,4.48
2017-11-13T03:00:13.693Z,4.48
2017-11-13T03:02:41.339Z,4.51
2017-11-13T03:05:09.021Z,4.51
2017-11-13T03:07:36.624Z,4.51
2017-11-13T03:10:04.275Z,4.50
2017-11-13T03:12:31.947Z,4.51
2017-11-13T03:14:59.651Z,4.51
2017-11-13T03:17:27.315Z,4.50
2017-11-13T03:19:54.938Z,4.50
2017-11-13T03:22:22.591Z,4.52
2017-11-13T03:24:50.404Z,4.54
2017-11-13T03:27:18.076Z,4.55
2017-11-13T03:29:45.777Z,4.54
2017-11-13T03:32:13.425Z,4.55
2017-11-13T03:34:41.120Z,4.55
2017-11-13T03:37:08.790Z,4.56
2017-11-13T03:39:36.472Z,4.59
2017-11-13T03:42:04.161Z,4.61
2017-11-13T03:44:31.864Z,4.62
2017-11-13T03:46:59.526Z,4.62
2017-11-13T03:49:27.235Z,4.63
2017-11-13T03:51:54.895Z,4.63
2017-11-13T03:54:22.585Z,4.65
2017-11-13T03:56:50.240Z,4.63
2017-11-13T03:59:17.933Z,4.63
2017-11-13T04:01:45.532Z,4.65
2017-11-13T04:04:13.218Z,4.68
2017-11-13T04:06:40.865Z,4.67
2017-11-13T04:09:08.493Z,4.67
2017-11-13T04:11:36.150Z,4.68
2017-11-13T04:14:03.893Z,4.67
2017-11-13T04:16:31.578Z,4.67
2017-11-13T04:18:59.292Z,4.68
2017-11-13T04:21:26.991Z,4.71
2017-11-13T04:23:54.647Z,4.70
2017-11-13T04:26:22.380Z,4.72
2017-11-13T04:28:50.036Z,4.72
2017-11-13T04:31:17.752Z,4.69
2017-11-13T04:33:45.405Z,4.68
2017-11-13T04:36:13.112Z,4.67
2017-11-13T04:38:40.762Z,4.67
2017-11-13T04:41:08.454Z,4.68
2017-11-13T04:43:36.141Z,4.67
2017-11-13T04:46:03.840Z,4.69
2017-11-13T04:48:31.499Z,4.69
2017-11-13T04:50:59.185Z,4.68
2017-11-13T04:53:26.790Z,4.68
2017-11-13T04:55:54.510Z,4.65
2017-11-13T04:58:22.166Z,4.62
2017-11-13T05:00:49.861Z,4.65
2017-11-13T05:03:17.524Z,4.66
2017-11-13T05:05:45.243Z,4.64
2017-11-13T05:08:12.916Z,4.64
2017-11-13T05:10:40.640Z,4.62
2017-11-13T05:13:08.315Z,4.58
2017-11-13T05:15:35.918Z,4.56
2017-11-13T05:18:03.631Z,4.54
2017-11-13T05:20:31.239Z,4.55
2017-11-13T05:22:58.878Z,4.58
2017-11-13T05:25:26.558Z,4.57
2017-11-13T05:27:54.274Z,4.57
2017-11-13T05:30:21.957Z,4.57
2017-11-13T05:32:49.657Z,4.54
2017-11-13T05:35:17.316Z,4.53
2017-11-13T05:37:44.949Z,4.52
2017-11-13T05:40:12.537Z,4.54
2017-11-13T05:42:40.163Z,4.56
2017-11-13T05:45:07.754Z,4.57
2017-11-13T05:47:35.417Z,4.58
2017-11-13T05:50:03.012Z,4.59
2017-11-13T05:52:30.639Z,4.61
2017-11-13T05:54:58.237Z,4.62
2017-11-13T05:57:25.873Z,4.62
2017-11-13T05:59:53.465Z,4.63
2017-11-13T06:02:21.106Z,4.65
2017-11-13T06:04:48.709Z,4.64
2017-11-13T06:07:16.332Z,4.62
2017-11-13T06:09:43.993Z,4.60
2017-11-13T06:12:11.597Z,4.60
2017-11-13T06:14:39.249Z,4.60
2017-11-13T06:17:06.832Z,4.60
2017-11-13T06:19:34.476Z,4.59
2017-11-13T06:22:02.073Z,4.57
2017-11-13T06:24:29.700Z,4.56
2017-11-13T06:26:57.297Z,4.57
2017-11-13T06:29:24.938Z,4.56
2017-11-13T06:31:52.531Z,4.55
2017-11-13T06:34:20.184Z,4.56
2017-11-13T06:36:47.781Z,4.56
2017-11-13T06:39:15.429Z,4.54
2017-11-13T06:41:43.069Z,4.54
2017-11-13T06:44:10.694Z,4.51
2017-11-13T06:46:38.300Z,4.49
2017-11-13T06:49:05.922Z,4.50
2017-11-13T06:51:33.516Z,4.51
2017-11-13T06:54:01.348Z,4.50
2017-11-13T06:56:28.973Z,4.52
2017-11-13T06:58:56.586Z,4.55
2017-11-13T07:01:24.300Z,4.57
2017-11-13T07:03:51.982Z,4.59
2017-11-13T07:06:19.682Z,4.59
2017-11-13T07:08:47.356Z,4.63
2017-11-13T07:11:14.981Z,4.62
2017-11-13T07:13:42.631Z,4.64
2017-11-13T07:16:10.273Z,4.66
2017-11-13T07:18:37.942Z,4.64
2017-11-13T07:21:05.616Z,4.64
2017-11-13T07:23:33.226Z,4.68
2017-11-13T07:26:00.935Z,4.71
2017-11-13T07:28:28.544Z,4.75
2017-11-13T07:30:56.184Z,4.76
2017-11-13T07:33:23.789Z,4.82
2017-11-13T07:35:51.394Z,4.86
2017-11-13T07:38:19.025Z,4.85
2017-11-13T07:40:46.656Z,4.85
2017-11-13T07:43:14.302Z,4.85
2017-11-13T07:45:41.975Z,4.88
2017-11-13T07:48:09.675Z,4.89
2017-11-13T07:50:37.328Z,4.86
2017-11-13T07:53:05.052Z,4.90
2017-11-13T07:55:32.715Z,4.93
2017-11-13T07:58:00.367Z,4.90
2017-11-13T08:00:28.031Z,4.86
2017-11-13T08:02:55.767Z,4.87
2017-11-13T08:05:23.438Z,4.90
2017-11-13T08:07:51.161Z,4.89
2017-11-13T08:10:18.822Z,4.95
2017-11-13T08:12:46.474Z,5.02
2017-11-13T08:15:14.076Z,5.07
2017-11-13T08:17:41.801Z,5.09
2017-11-13T08:20:09.454Z,5.14
2017-11-13T08:22:37.133Z,5.11
2017-11-13T08:25:05.760Z,5.13
2017-11-13T08:27:33.452Z,5.16
2017-11-13T08:30:01.143Z,5.27
2017-11-13T08:32:28.917Z,5.27
2017-11-13T08:34:56.614Z,5.25
2017-11-13T08:37:24.277Z,5.26
2017-11-13T08:39:51.963Z,5.26
2017-11-13T08:42:19.650Z,5.27
2017-11-13T08:44:47.361Z,5.34
2017-11-13T08:47:14.973Z,5.41
2017-11-13T08:49:42.619Z,5.49
2017-11-13T08:52:10.292Z,5.55
2017-11-13T08:54:37.931Z,5.58
2017-11-13T08:57:05.589Z,5.50
2017-11-13T08:59:33.272Z,5.57
2017-11-13T09:02:00.931Z,5.58
2017-11-13T09:04:28.587Z,5.64
2017-11-13T09:06:56.256Z,5.60
2017-11-13T09:09:23.968Z,5.75
2017-11-13T09:11:51.668Z,5.86
2017-11-13T09:14:19.344Z,5.80
2017-11-13T09:16:46.972Z,5.80
2017-11-13T09:19:14.638Z,5.83
2017-11-13T09:21:42.268Z,5.85
2017-11-13T09:24:10.761Z,5.97
2017-11-13T09:26:38.463Z,6.08
2017-11-13T09:29:06.118Z,6.08
2017-11-13T09:31:33.754Z,6.15
2017-11-13T09:34:01.420Z,6.21
2017-11-13T09:36:29.123Z,6.21
2017-11-13T09:38:56.793Z,6.15
2017-11-13T09:41:24.495Z,6.34
2017-11-13T09:43:52.110Z,6.41
2017-11-13T09:46:19.745Z,6.48
2017-11-13T09:48:47.331Z,6.50
2017-11-13T09:51:15.036Z,6.47
2017-11-13T09:53:42.697Z,6.46
2017-11-13T09:56:10.391Z,6.33
2017-11-13T09:58:38.055Z,6.27
2017-11-13T10:01:05.801Z,6.40
2017-11-13T10:03:33.474Z,6.50
2017-11-13T10:06:01.067Z,6.61
2017-11-13T10:08:28.766Z,6.68
2017-11-13T10:10:56.371Z,6.66
2017-11-13T10:13:24.017Z,6.81
2017-11-13T10:15:51.701Z,7.09
2017-11-13T10:18:19.356Z,7.26
2017-11-13T10:20:47.037Z,7.43
2017-11-13T10:23:14.740Z,7.24
2017-11-13T10:25:42.436Z,7.12
2017-11-13T10:28:10.126Z,7.02
2017-11-13T10:30:37.797Z,7.01
2017-11-13T10:33:05.513Z,7.12
2017-11-13T10:35:33.130Z,7.12
2017-11-13T10:38:00.816Z,7.14
2017-11-13T10:40:28.466Z,7.25
2017-11-13T10:42:56.210Z,7.29
2017-11-13T10:45:23.879Z,7.31
2017-11-13T10:47:51.576Z,7.27
2017-11-13T10:50:19.261Z,7.34
2017-11-13T10:52:46.919Z,7.39
2017-11-13T10:55:14.638Z,7.38
2017-11-13T10:57:42.240Z,7.41
2017-11-13T11:00:09.902Z,7.54
2017-11-13T11:02:37.521Z,7.67
2017-11-13T11:05:05.172Z,7.66
2017-11-13T11:07:32.767Z,7.77
2017-11-13T11:10:00.449Z,7.85
2017-11-13T11:12:29.997Z,7.95
2017-11-13T11:15:03.334Z,7.89
2017-11-13T11:17:46.732Z,7.88
2017-11-13T11:23:34.037Z,7.97
2017-11-13T11:29:19.522Z,7.96
2017-11-13T11:31:48.079Z,7.98
2017-11-13T11:37:29.478Z,8.04
2017-11-13T11:39:57.132Z,8.09
2017-11-13T11:42:24.725Z,8.10
2017-11-13T11:44:58.276Z,8.13
2017-11-13T11:47:25.891Z,8.14
2017-11-13T11:49:53.545Z,8.16
2017-11-13T11:52:21.207Z,8.25
2017-11-13T11:57:59.875Z,8.42
2017-11-13T12:00:27.524Z,8.42
2017-11-13T12:02:55.150Z,8.48
2017-11-13T12:05:22.850Z,8.44
2017-11-13T12:07:50.482Z,8.46
2017-11-13T12:10:18.119Z,8.44
2017-11-13T12:12:45.846Z,8.41
2017-11-13T12:15:13.509Z,8.49
2017-11-13T12:17:41.141Z,8.48
2017-11-13T12:20:08.794Z,8.46
2017-11-13T12:22:36.480Z,8.64
2017-11-13T12:25:05.156Z,8.83
2017-11-13T12:27:32.839Z,8.90
2017-11-13T12:30:00.504Z,8.77
2017-11-13T12:32:28.208Z,8.52
2017-11-13T12:34:55.967Z,8.52
2017-11-13T12:37:23.651Z,8.48
2017-11-13T12:39:51.299Z,8.48
2017-11-13T12:42:19.025Z,8.40
2017-11-13T12:44:46.700Z,8.26
2017-11-13T12:47:14.404Z,8.11
2017-11-13T12:49:42.039Z,8.17
2017-11-13T12:52:09.677Z,8.18
2017-11-13T12:54:37.340Z,8.39
2017-11-13T12:57:05.005Z,8.48
2017-11-13T12:59:32.621Z,8.46
2017-11-13T13:02:00.336Z,8.51
2017-11-13T13:04:28.004Z,8.58
2017-11-13T13:06:55.702Z,8.64
2017-11-13T13:09:23.385Z,8.63
2017-11-13T13:11:51.151Z,8.53
2017-11-13T13:14:18.826Z,8.53
2017-11-13T13:16:46.476Z,8.59
2017-11-13T13:19:14.131Z,8.59
2017-11-13T13:21:41.733Z,8.66
2017-11-13T13:24:09.367Z,8.89
2017-11-13T13:26:36.960Z,9.04
2017-11-13T13:29:04.585Z,9.00
2017-11-13T13:31:32.166Z,9.05
2017-11-13T13:33:59.789Z,8.98
2017-11-13T13:36:27.449Z,8.91
2017-11-13T13:38:55.084Z,8.66
2017-11-13T13:41:22.746Z,8.46
2017-11-13T13:43:50.481Z,8.43
2017-11-13T13:46:18.141Z,8.41
2017-11-13T13:48:45.768Z,8.38
2017-11-13T13:51:13.461Z,8.31
2017-11-13T13:53:41.178Z,8.32
2017-11-13T13:56:08.838Z,8.37
2017-11-13T13:58:36.560Z,8.42
2017-11-13T14:01:04.226Z,8.44
2017-11-13T14:03:31.953Z,8.46
2017-11-13T14:05:59.638Z,8.43
2017-11-13T14:08:27.363Z,8.33
2017-11-13T14:10:55.047Z,8.13
2017-11-13T14:13:22.739Z,8.08
2017-11-13T14:15:50.448Z,8.14
2017-11-13T14:18:18.119Z,8.15
2017-11-13T14:20:45.735Z,8.13
2017-11-13T14:23:13.405Z,8.14
2017-11-13T14:25:41.097Z,8.12
2017-11-13T14:28:08.777Z,8.11
2017-11-13T14:30:36.466Z,8.06
2017-11-13T14:33:04.141Z,7.98
2017-11-13T14:35:31.823Z,7.89
2017-11-13T14:37:59.509Z,7.74
2017-11-13T14:40:27.177Z,7.61
2017-11-13T14:42:54.824Z,7.50
2017-11-13T14:45:22.571Z,7.45
2017-11-13T14:47:50.159Z,7.37
2017-11-13T14:50:17.781Z,7.32
2017-11-13T14:52:45.454Z,7.23
2017-11-13T14:55:13.081Z,7.18
2017-11-13T14:57:40.661Z,7.15
2017-11-13T15:00:08.302Z,7.08
2017-11-13T15:02:35.924Z,6.99
2017-11-13T15:05:03.538Z,6.91
2017-11-13T15:07:31.172Z,6.82
2017-11-13T15:09:58.819Z,6.72
2017-11-13T15:12:26.444Z,6.61
2017-11-13T15:14:54.035Z,6.52
2017-11-13T15:17:21.717Z,6.42
2017-11-13T15:19:49.385Z,6.33
2017-11-13T15:22:17.097Z,6.23
2017-11-13T15:24:44.785Z,6.23
2017-11-13T15:27:12.414Z,6.19
2017-11-13T15:29:40.106Z,6.17
2017-11-13T15:32:07.769Z,6.13
2017-11-13T15:34:35.426Z,5.97
2017-11-13T15:37:03.085Z,5.86
2017-11-13T15:39:30.678Z,5.76
2017-11-13T15:41:58.322Z,5.68
2017-11-13T15:44:25.902Z,5.63
2017-11-13T15:46:53.537Z,5.58
2017-11-13T15:49:21.119Z,5.53
2017-11-13T15:51:48.816Z,5.47
2017-11-13T15:54:16.471Z,5.43
2017-11-13T15:56:44.146Z,5.37
2017-11-13T15:59:11.736Z,5.28
2017-11-13T16:01:39.325Z,5.15
2017-11-13T16:04:07.014Z,5.01
2017-11-13T16:06:34.655Z,4.90
2017-11-13T16:09:02.362Z,4.86
2017-11-13T16:11:29.972Z,4.80
2017-11-13T16:13:57.641Z,4.80
2017-11-13T16:16:25.271Z,4.78
2017-11-13T16:18:52.903Z,4.71
2017-11-13T16:21:20.475Z,4.62
2017-11-13T16:23:48.111Z,4.49
2017-11-13T16:26:15.708Z,4.36
2017-11-13T16:28:43.359Z,4.24
2017-11-13T16:31:10.966Z,4.11
2017-11-13T16:33:38.591Z,3.99
2017-11-13T16:36:06.183Z,3.89
2017-11-13T16:38:33.809Z,3.71
2017-11-13T16:41:01.428Z,3.60
2017-11-13T16:43:29.052Z,3.53
2017-11-13T16:45:56.653Z,3.48
2017-11-13T16:48:24.275Z,3.42
2017-11-13T16:50:51.892Z,3.36
2017-11-13T16:53:19.535Z,3.28
2017-11-13T16:55:47.180Z,3.18
2017-11-13T16:58:14.816Z,3.06
2017-11-13T17:00:42.477Z,2.92
2017-11-13T17:03:10.120Z,2.80
2017-11-13T17:05:37.723Z,2.68
2017-11-13T17:08:05.432Z,2.56
2017-11-13T17:10:33.126Z,2.48
2017-11-13T17:13:00.789Z,2.40
2017-11-13T17:15:28.444Z,2.28
2017-11-13T17:17:56.058Z,2.16
2017-11-13T17:20:23.679Z,2.09
2017-11-13T17:22:51.264Z,2.06
2017-11-13T17:25:18.899Z,2.13
2017-11-13T17:27:46.498Z,2.31
2017-11-13T17:30:14.124Z,2.58
2017-11-13T17:32:41.723Z,2.76
2017-11-13T17:35:09.355Z,2.96
2017-11-13T17:37:36.943Z,3.03
2017-11-13T17:40:04.557Z,2.96
2017-11-13T17:42:32.177Z,2.75
2017-11-13T17:44:59.817Z,2.51
2017-11-13T17:47:27.430Z,2.41
2017-11-13T17:49:55.061Z,2.43
2017-11-13T17:52:22.671Z,2.49
2017-11-13T17:54:50.330Z,2.52
2017-11-13T17:57:17.938Z,2.51
2017-11-13T17:59:45.539Z,2.52
2017-11-13T18:02:13.202Z,2.58
2017-11-13T18:04:40.800Z,2.64
2017-11-13T18:07:08.495Z,2.74
2017-11-13T18:09:36.157Z,2.66
2017-11-13T18:12:03.846Z,2.51
2017-11-13T18:14:31.516Z,2.41
2017-11-13T18:16:59.229Z,2.40
2017-11-13T18:19:26.896Z,2.61
2017-11-13T18:21:54.544Z,2.71
2017-11-13T18:24:22.195Z,2.70
2017-11-13T18:26:49.900Z,2.45
2017-11-13T18:29:17.571Z,2.25
2017-11-13T18:31:45.263Z,2.11
2017-11-13T18:34:12.857Z,2.06
2017-11-13T18:36:40.557Z,2.17
2017-11-13T18:39:08.238Z,2.27
2017-11-13T18:41:35.969Z,2.33
2017-11-13T18:44:03.583Z,2.38
2017-11-13T18:46:31.237Z,2.44
2017-11-13T18:48:58.837Z,2.55
2017-11-13T18:51:26.434Z,2.61
2017-11-13T18:53:54.088Z,2.65
2017-11-13T18:56:21.680Z,2.60
2017-11-13T18:58:49.340Z,2.46
2017-11-13T19:01:16.922Z,2.32
2017-11-13T19:03:44.620Z,2.15
2017-11-13T19:06:12.285Z,1.97
2017-11-13T19:08:39.916Z,1.81
2017-11-13T19:11:07.572Z,1.74
2017-11-13T19:13:35.304Z,1.69
2017-11-13T19:16:03.019Z,1.69
2017-11-13T19:18:30.728Z,1.68
2017-11-13T19:20:58.402Z,1.64
2017-11-13T19:23:26.085Z,1.53
2017-11-13T19:25:53.725Z,1.38
2017-11-13T19:28:21.412Z,1.27
2017-11-13T19:30:49.112Z,1.13
2017-11-13T19:33:16.830Z,1.03
2017-11-13T19:35:44.530Z,0.95
2017-11-13T19:38:12.259Z,0.89
2017-11-13T19:40:39.957Z,0.86
2017-11-13T19:43:07.714Z,0.85
2017-11-13T19:45:35.383Z,0.86
2017-11-13T19:48:03.084Z,0.93
2017-11-13T19:50:30.760Z,0.98
2017-11-13T19:52:58.412Z,0.98
2017-11-13T19:55:26.102Z,0.93
2017-11-13T19:57:53.748Z,0.94
2017-11-13T20:00:21.456Z,0.94
2017-11-13T20:02:49.103Z,0.91
2017-11-13T20:05:16.794Z,0.88
2017-11-13T20:07:44.467Z,0.89
2017-11-13T20:10:12.188Z,0.86
2017-11-13T20:12:39.861Z,0.82
2017-11-13T20:15:07.567Z,0.78
2017-11-13T20:17:35.211Z,0.69
2017-11-13T20:20:02.895Z,0.63
2017-11-13T20:22:30.538Z,0.60
2017-11-13T20:24:58.237Z,0.58
2017-11-13T20:27:25.887Z,0.51
2017-11-13T20:29:53.569Z,0.52
2017-11-13T20:32:21.227Z,0.50
2017-11-13T20:34:48.920Z,0.50
2017-11-13T20:37:16.578Z,0.50
2017-11-13T20:39:44.245Z,0.50
2017-11-13T20:42:11.940Z,0.52
2017-11-13T20:44:39.645Z,0.48
2017-11-13T20:47:07.340Z,0.45
2017-11-13T20:49:35.029Z,0.42
2017-11-13T20:52:02.761Z,0.37
2017-11-13T20:54:30.424Z,0.32
2017-11-13T20:56:58.130Z,0.30
2017-11-13T20:59:25.788Z,0.29
2017-11-13T21:01:53.509Z,0.27
2017-11-13T21:04:21.176Z,0.21
2017-11-13T21:06:48.864Z,0.18
2017-11-13T21:09:16.461Z,0.15
2017-11-13T21:11:44.135Z,0.10
2017-11-13T21:14:11.800Z,0.08
2017-11-13T21:16:39.480Z,0.06
2017-11-13T21:19:07.081Z,0.04
2017-11-13T21:21:34.750Z,-0.03
2017-11-13T21:24:02.440Z,-0.07
2017-11-13T21:26:30.044Z,-0.06
2017-11-13T21:28:57.751Z,-0.04
2017-11-13T21:31:25.404Z,-0.08
2017-11-13T21:33:53.109Z,-0.09
2017-11-13T21:36:20.763Z,-0.04
2017-11-13T21:38:48.400Z,0.03
2017-11-13T21:41:16.020Z,0.05
2017-11-13T21:43:43.769Z,0.01
2017-11-13T21:46:11.448Z,-0.02
2017-11-13T21:48:39.159Z,-0.06
2017-11-13T21:51:06.845Z,-0.09
2017-11-13T21:53:34.552Z,-0.08
2017-11-13T21:56:02.229Z,-0.10
2017-11-13T21:58:29.910Z,-0.12
2017-11-13T22:00:57.618Z,-0.12
2017-11-13T22:03:25.342Z,-0.10
2017-11-13T22:05:53.085Z,-0.12
2017-11-13T22:08:20.867Z,-0.16
2017-11-13T22:10:48.516Z,-0.18
2017-11-13T22:13:16.195Z,-0.16
2017-11-13T22:15:43.852Z,-0.12
2017-11-13T22:18:11.520Z,-0.13
2017-11-13T22:20:39.238Z,-0.17
2017-11-13T22:23:06.935Z,-0.21
2017-11-13T22:25:34.603Z,-0.24
2017-11-13T22:28:02.291Z,-0.26
2017-11-13T22:30:30.015Z,-0.25
2017-11-13T22:32:57.729Z,-0.23
2017-11-13T22:35:25.411Z,-0.21
2017-11-13T22:37:53.558Z,-0.22
2017-11-13T22:40:21.301Z,-0.22
2017-11-13T22:42:49.049Z,-0.24
2017-11-13T22:45:16.784Z,-0.28
2017-11-13T22:47:44.500Z,-0.32
2017-11-13T22:50:12.200Z,-0.36
2017-11-13T22:52:39.954Z,-0.38
2017-11-13T22:55:07.643Z,-0.36
2017-11-13T22:57:35.366Z,-0.36
2017-11-13T23:00:03.104Z,-0.34
2017-11-13T23:02:30.775Z,-0.33
2017-11-13T23:04:58.484Z,-0.35
2017-11-13T23:07:26.222Z,-0.40
2017-11-13T23:09:53.952Z,-0.45
2017-11-13T23:12:21.669Z,-0.46
2017-11-13T23:14:49.393Z,-0.46
2017-11-13T23:17:17.137Z,-0.47
2017-11-13T23:19:44.854Z,-0.48
2017-11-13T23:22:12.564Z,-0.56
2017-11-13T23:24:40.235Z,-0.58
2017-11-13T23:27:07.949Z,-0.59
2017-11-13T23:29:35.650Z,-0.60
2017-11-13T23:32:03.378Z,-0.61
2017-11-13T23:34:31.120Z,-0.65
2017-11-13T23:36:58.852Z,-0.67
2017-11-13T23:39:26.598Z,-0.68
2017-11-13T23:41:54.282Z,-0.64
2017-11-13T23:44:22.024Z,-0.67
2017-11-13T23:46:49.811Z,-0.68
2017-11-13T23:49:17.623Z,-0.71
2017-11-13T23:51:45.402Z,-0.74
2017-11-13T23:54:13.246Z,-0.77
2017-11-13T23:56:41.453Z,-0.79
2017-11-13T23:59:09.319Z,-0.78
